createdAt,value
2023-02-19T00:02:16.972Z,100.00
2023-02-19T00:04:46.945Z,100.00
2023-02-19T00:07:14.105Z,100.00
2023-02-19T00:09:40.933Z,100.00
2023-02-19T00:12:08.172Z,100.00
2023-02-19T00:14:35.995Z,100.00
2023-02-19T00:17:02.884Z,100.00
2023-02-19T00:19:29.986Z,100.00
2023-02-19T00:21:57.160Z,100.00
2023-02-19T00:24:24.069Z,100.00
2023-02-19T00:26:53.398Z,100.00
2023-02-19T00:29:21.899Z,100.00
2023-02-19T00:31:49.034Z,100.00
2023-02-19T00:34:16.534Z,100.00
2023-02-19T00:36:43.927Z,100.00
2023-02-19T00:39:15.644Z,100.00
2023-02-19T00:41:43.052Z,100.00
2023-02-19T00:44:11.769Z,100.00
2023-02-19T00:46:45.053Z,100.00
2023-02-19T00:49:21.267Z,100.00
2023-02-19T00:51:49.589Z,100.00
2023-02-19T00:54:17.070Z,100.00
2023-02-19T00:56:44.275Z,100.00
2023-02-19T00:59:11.653Z,100.00
2023-02-19T01:01:39.256Z,100.00
2023-02-19T01:04:06.907Z,100.00
2023-02-19T01:06:34.973Z,100.00
2023-02-19T01:09:02.412Z,100.00
2023-02-19T01:11:29.222Z,100.00
2023-02-19T01:14:00.172Z,100.00
2023-02-19T01:16:27.969Z,100.00
2023-02-19T01:18:54.879Z,100.00
2023-02-19T01:21:24.254Z,100.00
2023-02-19T01:23:52.597Z,100.00
2023-02-19T01:26:22.255Z,100.00
2023-02-19T01:28:49.195Z,100.00
2023-02-19T01:31:18.833Z,100.00
2023-02-19T01:33:47.866Z,100.00
2023-02-19T01:36:15.256Z,100.00
2023-02-19T01:38:42.509Z,100.00
2023-02-19T01:41:13.653Z,100.00
2023-02-19T01:44:01.839Z,100.00
2023-02-19T01:46:36.764Z,100.00
2023-02-19T01:49:16.192Z,100.00
2023-02-19T01:51:47.658Z,100.00
2023-02-19T01:54:18.104Z,100.00
2023-02-19T01:56:46.915Z,100.00
2023-02-19T01:59:14.415Z,100.00
2023-02-19T02:01:42.020Z,100.00
2023-02-19T02:04:15.162Z,100.00
2023-02-19T02:06:48.644Z,100.00
2023-02-19T02:09:37.646Z,100.00
2023-02-19T02:12:05.087Z,100.00
2023-02-19T02:14:36.627Z,100.00
2023-02-19T02:17:28.107Z,100.00
2023-02-19T02:20:15.516Z,100.00
2023-02-19T02:23:14.747Z,100.00
2023-02-19T02:26:11.005Z,100.00
2023-02-19T02:29:05.640Z,100.00
2023-02-19T02:31:39.613Z,100.00
2023-02-19T02:34:46.250Z,100.00
2023-02-19T02:37:15.311Z,100.00
2023-02-19T02:39:46.652Z,100.00
2023-02-19T02:42:29.078Z,100.00
2023-02-19T02:45:34.699Z,100.00
2023-02-19T02:48:32.202Z,100.00
2023-02-19T02:51:16.200Z,100.00
2023-02-19T02:54:29.496Z,100.00
2023-02-19T02:56:58.487Z,100.00
2023-02-19T02:59:29.028Z,100.00
2023-02-19T03:02:11.260Z,100.00
2023-02-19T03:05:17.312Z,100.00
2023-02-19T03:07:47.789Z,100.00
2023-02-19T03:10:20.691Z,100.00
2023-02-19T03:13:09.755Z,100.00
2023-02-19T03:16:02.162Z,100.00
2023-02-19T03:18:51.080Z,100.00
2023-02-19T03:21:21.881Z,100.00
2023-02-19T03:24:09.409Z,100.00
2023-02-19T03:26:37.650Z,100.00
2023-02-19T03:29:24.489Z,100.00
2023-02-19T03:31:56.374Z,100.00
2023-02-19T03:34:29.762Z,100.00
2023-02-19T03:37:10.636Z,100.00
2023-02-19T03:39:44.555Z,100.00
2023-02-19T03:42:23.852Z,100.00
2023-02-19T03:45:28.527Z,100.00
2023-02-19T03:48:25.299Z,100.00
2023-02-19T03:51:27.765Z,100.00
2023-02-19T03:54:14.772Z,100.00
2023-02-19T03:56:53.152Z,100.00
2023-02-19T04:00:04.323Z,100.00
2023-02-19T04:02:58.220Z,100.00
2023-02-19T04:05:30.083Z,100.00
2023-02-19T04:08:08.737Z,100.00
2023-02-19T04:10:37.516Z,100.00
2023-02-19T04:13:15.505Z,100.00
2023-02-19T04:15:44.533Z,100.00
2023-02-19T04:18:26.737Z,100.00
2023-02-19T04:20:53.843Z,100.00
2023-02-19T04:23:25.748Z,100.00
2023-02-19T04:25:57.213Z,100.00
2023-02-19T04:28:24.223Z,100.00
2023-02-19T04:30:53.619Z,100.00
2023-02-19T04:33:20.743Z,100.00
2023-02-19T04:35:47.828Z,100.00
2023-02-19T04:38:14.957Z,100.00
2023-02-19T04:40:41.867Z,100.00
2023-02-19T04:43:08.731Z,100.00
2023-02-19T04:45:38.291Z,100.00
2023-02-19T04:48:06.089Z,100.00
2023-02-19T04:50:33.100Z,100.00
2023-02-19T04:53:01.286Z,100.00
2023-02-19T04:55:28.275Z,100.00
2023-02-19T04:57:55.159Z,100.00
2023-02-19T05:00:22.181Z,100.00
2023-02-19T05:02:49.073Z,100.00
2023-02-19T05:05:16.060Z,100.00
2023-02-19T05:07:45.787Z,100.00
2023-02-19T05:10:12.696Z,100.00
2023-02-19T05:12:39.473Z,100.00
2023-02-19T05:15:06.811Z,100.00
2023-02-19T05:17:34.816Z,100.00
2023-02-19T05:20:01.909Z,100.00
2023-02-19T05:22:30.290Z,100.00
2023-02-19T05:24:57.392Z,100.00
2023-02-19T05:27:24.303Z,100.00
2023-02-19T05:29:51.269Z,100.00
2023-02-19T05:32:18.293Z,100.00
2023-02-19T05:34:45.386Z,100.00
2023-02-19T05:37:12.509Z,100.00
2023-02-19T05:39:39.570Z,100.00
2023-02-19T05:42:06.557Z,100.00
2023-02-19T05:44:33.484Z,100.00
2023-02-19T05:47:00.443Z,100.00
2023-02-19T05:49:28.169Z,100.00
2023-02-19T05:51:55.040Z,100.00
2023-02-19T05:54:21.933Z,100.00
2023-02-19T05:56:49.132Z,100.00
2023-02-19T05:59:22.422Z,100.00
2023-02-19T06:01:51.293Z,100.00
2023-02-19T06:04:20.144Z,100.00
2023-02-19T06:06:48.218Z,100.00
2023-02-19T06:09:15.236Z,100.00
2023-02-19T06:11:43.737Z,100.00
2023-02-19T06:14:13.755Z,100.00
2023-02-19T06:16:40.848Z,100.00
2023-02-19T06:19:08.123Z,100.00
2023-02-19T06:21:35.544Z,100.00
2023-02-19T06:24:10.019Z,100.00
2023-02-19T06:26:38.524Z,100.00
2023-02-19T06:29:05.394Z,100.00
2023-02-19T06:31:32.343Z,100.00
2023-02-19T06:33:59.631Z,100.00
2023-02-19T06:36:26.780Z,100.00
2023-02-19T06:38:53.759Z,100.00
2023-02-19T06:41:25.117Z,100.00
2023-02-19T06:43:51.944Z,100.00
2023-02-19T06:46:19.201Z,100.00
2023-02-19T06:48:46.450Z,100.00
2023-02-19T06:51:15.608Z,100.00
2023-02-19T06:53:42.443Z,100.00
2023-02-19T06:56:23.377Z,100.00
2023-02-19T06:58:50.406Z,100.00
2023-02-19T07:01:17.407Z,100.00
2023-02-19T07:03:44.619Z,100.00
2023-02-19T07:06:11.677Z,100.00
2023-02-19T07:08:38.658Z,100.00
2023-02-19T07:11:05.986Z,100.00
2023-02-19T07:13:33.249Z,100.00
2023-02-19T07:16:04.259Z,100.00
2023-02-19T07:18:32.259Z,100.00
2023-02-19T07:21:11.500Z,100.00
2023-02-19T07:23:38.578Z,100.00
2023-02-19T07:26:09.398Z,100.00
2023-02-19T07:28:36.188Z,100.00
2023-02-19T07:31:04.641Z,100.00
2023-02-19T07:33:31.638Z,100.00
2023-02-19T07:35:58.685Z,100.00
2023-02-19T07:38:27.318Z,100.00
2023-02-19T07:40:55.718Z,100.00
2023-02-19T07:43:23.885Z,100.00
2023-02-19T07:45:53.888Z,100.00
2023-02-19T07:48:21.327Z,100.00
2023-02-19T07:50:55.482Z,100.00
2023-02-19T07:53:22.993Z,100.00
2023-02-19T07:55:50.181Z,100.00
2023-02-19T07:58:17.659Z,100.00
2023-02-19T08:00:47.583Z,100.00
2023-02-19T08:03:14.443Z,100.00
2023-02-19T08:05:42.876Z,100.00
2023-02-19T08:08:14.950Z,100.00
2023-02-19T08:11:00.591Z,100.00
2023-02-19T08:13:30.441Z,100.00
2023-02-19T08:16:19.962Z,100.00
2023-02-19T08:18:49.509Z,100.00
2023-02-19T08:21:18.494Z,100.00
2023-02-19T08:23:46.606Z,100.00
2023-02-19T08:26:14.015Z,100.00
2023-02-19T08:28:41.652Z,100.00
2023-02-19T08:31:14.340Z,100.00
2023-02-19T08:33:41.457Z,100.00
2023-02-19T08:36:10.165Z,100.00
2023-02-19T08:38:39.786Z,100.00
2023-02-19T08:41:09.045Z,99.73
2023-02-19T08:43:36.787Z,98.17
2023-02-19T08:46:04.874Z,96.45
2023-02-19T08:48:32.024Z,95.35
2023-02-19T08:51:04.591Z,94.90
2023-02-19T08:53:32.947Z,95.91
2023-02-19T08:56:04.559Z,95.13
2023-02-19T08:58:33.242Z,94.24
2023-02-19T09:01:00.250Z,91.37
2023-02-19T09:03:27.337Z,90.38
2023-02-19T09:05:54.347Z,88.72
2023-02-19T09:08:21.319Z,86.37
2023-02-19T09:10:59.386Z,85.05
2023-02-19T09:13:26.486Z,78.50
2023-02-19T09:15:53.567Z,75.81
2023-02-19T09:18:20.670Z,77.86
2023-02-19T09:20:47.754Z,80.00
2023-02-19T09:23:14.913Z,76.03
2023-02-19T09:25:41.887Z,73.03
2023-02-19T09:28:11.725Z,71.57
2023-02-19T09:30:38.596Z,71.14
2023-02-19T09:33:06.071Z,72.09
2023-02-19T09:35:38.405Z,70.98
2023-02-19T09:38:05.330Z,74.86
2023-02-19T09:40:32.371Z,77.19
2023-02-19T09:43:03.534Z,76.01
2023-02-19T09:45:30.576Z,75.43
2023-02-19T09:47:58.645Z,72.83
2023-02-19T09:50:35.157Z,71.75
2023-02-19T09:53:10.562Z,76.90
2023-02-19T09:55:40.971Z,77.05
2023-02-19T09:58:24.786Z,79.71
2023-02-19T10:00:53.336Z,79.67
2023-02-19T10:03:43.389Z,74.61
2023-02-19T10:06:20.930Z,71.64
2023-02-19T10:08:51.593Z,70.67
2023-02-19T10:11:19.335Z,64.47
2023-02-19T10:14:01.981Z,69.04
2023-02-19T10:16:29.625Z,63.81
2023-02-19T10:18:56.767Z,62.04
2023-02-19T10:21:26.020Z,59.35
2023-02-19T10:24:03.333Z,60.18
2023-02-19T10:26:35.396Z,59.34
2023-02-19T10:29:14.050Z,63.95
2023-02-19T10:31:40.884Z,63.53
2023-02-19T10:34:19.779Z,69.95
2023-02-19T10:36:49.023Z,73.57
2023-02-19T10:39:42.711Z,76.11
2023-02-19T10:42:21.670Z,78.32
2023-02-19T10:44:58.729Z,82.53
2023-02-19T10:47:27.689Z,83.90
2023-02-19T10:49:58.472Z,86.27
2023-02-19T10:52:34.681Z,85.17
2023-02-19T10:55:27.188Z,85.72
2023-02-19T10:57:55.264Z,84.02
2023-02-19T11:00:30.829Z,84.69
2023-02-19T11:03:18.658Z,84.96
2023-02-19T11:05:59.722Z,85.32
2023-02-19T11:08:26.880Z,85.31
2023-02-19T11:10:53.861Z,85.79
2023-02-19T11:13:29.300Z,84.00
2023-02-19T11:15:57.127Z,82.51
2023-02-19T11:18:32.107Z,83.87
2023-02-19T11:21:02.325Z,86.95
2023-02-19T11:23:33.260Z,91.45
2023-02-19T11:26:04.107Z,88.92
2023-02-19T11:28:32.811Z,88.48
2023-02-19T11:31:26.278Z,90.52
2023-02-19T11:34:21.654Z,91.20
2023-02-19T11:37:08.397Z,90.06
2023-02-19T11:39:36.255Z,89.83
2023-02-19T11:42:18.078Z,85.75
2023-02-19T11:44:54.473Z,84.01
2023-02-19T11:47:39.785Z,81.74
2023-02-19T11:50:17.344Z,82.38
2023-02-19T11:52:54.396Z,83.36
2023-02-19T11:55:42.621Z,83.11
2023-02-19T11:58:39.269Z,79.83
2023-02-19T12:01:21.500Z,84.17
2023-02-19T12:04:00.294Z,81.62
2023-02-19T12:06:31.721Z,86.82
2023-02-19T12:09:38.130Z,86.17
2023-02-19T12:12:24.514Z,85.34
2023-02-19T12:15:20.389Z,83.47
2023-02-19T12:17:53.176Z,81.78
2023-02-19T12:20:33.818Z,82.82
2023-02-19T12:23:28.373Z,82.70
2023-02-19T12:26:07.086Z,82.73
2023-02-19T12:28:49.319Z,85.29
2023-02-19T12:32:00.660Z,85.15
2023-02-19T12:34:59.768Z,84.80
2023-02-19T12:37:53.362Z,84.48
2023-02-19T12:40:46.252Z,83.51
2023-02-19T12:43:20.111Z,84.61
2023-02-19T12:45:59.155Z,82.28
2023-02-19T12:48:39.229Z,85.09
2023-02-19T12:51:16.292Z,85.40
2023-02-19T12:53:59.463Z,85.59
2023-02-19T12:56:36.711Z,84.78
2023-02-19T12:59:21.476Z,86.01
2023-02-19T13:02:11.331Z,82.36
2023-02-19T13:05:02.756Z,84.15
2023-02-19T13:07:39.538Z,82.28
2023-02-19T13:10:40.612Z,82.28
2023-02-19T13:13:23.927Z,83.12
2023-02-19T13:15:54.186Z,83.84
2023-02-19T13:18:26.433Z,83.59
2023-02-19T13:20:55.639Z,82.17
2023-02-19T13:23:47.011Z,82.08
2023-02-19T13:26:41.642Z,81.93
2023-02-19T13:29:29.896Z,82.80
2023-02-19T13:32:24.342Z,83.24
2023-02-19T13:35:13.698Z,83.13
2023-02-19T13:37:41.651Z,85.07
2023-02-19T13:40:36.251Z,84.53
2023-02-19T13:43:06.519Z,85.44
2023-02-19T13:45:46.289Z,84.18
2023-02-19T13:48:24.278Z,84.61
2023-02-19T13:51:17.246Z,86.13
2023-02-19T13:53:48.448Z,86.95
2023-02-19T13:56:30.439Z,88.21
2023-02-19T13:58:58.200Z,88.49
2023-02-19T14:01:50.160Z,87.15
2023-02-19T14:04:47.652Z,86.95
2023-02-19T14:07:14.540Z,87.85
2023-02-19T14:09:41.488Z,88.83
2023-02-19T14:12:09.732Z,88.43
2023-02-19T14:14:36.572Z,87.05
2023-02-19T14:17:09.418Z,88.96
2023-02-19T14:19:41.907Z,88.77
2023-02-19T14:23:05.964Z,83.87
2023-02-19T14:42:36.140Z,100.00
2023-02-19T14:45:07.300Z,100.00
2023-02-19T19:08:17.730Z,51.03
2023-02-19T19:10:44.613Z,53.59
2023-02-19T19:23:24.134Z,42.41
2023-02-19T19:25:51.108Z,44.23
2023-02-19T19:28:17.950Z,49.20
2023-02-19T19:30:44.985Z,51.46
2023-02-19T19:33:12.115Z,55.63
2023-02-19T19:35:40.944Z,59.45
2023-02-19T19:38:08.327Z,62.00
2023-02-19T19:40:35.159Z,64.35
2023-02-19T19:43:02.100Z,66.72
2023-02-19T19:45:29.108Z,67.23
2023-02-19T19:47:56.194Z,70.02
2023-02-19T19:50:23.374Z,70.45
2023-02-19T19:52:50.242Z,71.72
2023-02-19T19:55:17.997Z,72.47
2023-02-19T19:57:44.936Z,72.52
2023-02-19T20:00:16.261Z,73.62
2023-02-19T20:02:43.186Z,74.49
2023-02-19T20:05:10.396Z,75.25
2023-02-19T20:07:37.448Z,75.55
2023-02-19T20:10:05.876Z,75.88
2023-02-19T20:12:33.015Z,77.13
2023-02-19T20:15:02.554Z,77.39
2023-02-19T20:17:29.483Z,77.75
2023-02-19T20:19:56.395Z,78.24
2023-02-19T20:22:23.332Z,77.78
2023-02-19T20:24:54.711Z,78.38
2023-02-19T20:27:22.954Z,78.64
2023-02-19T20:29:50.400Z,78.69
2023-02-19T20:32:20.571Z,78.41
2023-02-19T20:34:48.120Z,78.96
2023-02-19T20:37:15.370Z,78.72
2023-02-19T20:39:43.556Z,78.11
2023-02-19T20:42:10.481Z,78.50
2023-02-19T20:44:42.544Z,79.17
2023-02-19T20:47:09.536Z,78.33
2023-02-19T20:49:36.498Z,78.20
2023-02-19T20:52:07.001Z,78.32
2023-02-19T20:54:37.100Z,77.96
2023-02-19T20:57:05.793Z,78.72
2023-02-19T20:59:35.768Z,77.90
2023-02-19T21:02:05.579Z,77.83
2023-02-19T21:04:34.573Z,78.10
2023-02-19T21:07:04.138Z,77.93
2023-02-19T21:09:31.236Z,77.11
2023-02-19T21:11:58.849Z,77.86
2023-02-19T21:14:27.014Z,77.06
2023-02-19T21:16:53.990Z,77.82
2023-02-19T21:19:21.928Z,77.46
2023-02-19T21:21:48.725Z,76.48
2023-02-19T21:24:16.962Z,76.32
2023-02-19T21:26:45.056Z,76.58
2023-02-19T21:29:19.501Z,76.36
2023-02-19T21:31:48.906Z,77.15
2023-02-19T21:34:19.489Z,76.65
2023-02-19T21:36:47.046Z,77.72
2023-02-19T21:39:17.347Z,77.90
2023-02-19T21:41:44.511Z,77.51
2023-02-19T21:44:11.447Z,77.47
2023-02-19T21:46:38.587Z,77.82
2023-02-19T21:49:08.262Z,77.38
2023-02-19T21:51:38.165Z,77.70
2023-02-19T21:54:06.692Z,77.15
2023-02-19T21:56:36.238Z,77.60
2023-02-19T21:59:03.762Z,77.81
2023-02-19T22:01:35.387Z,77.38
2023-02-19T22:04:02.441Z,76.99
2023-02-19T22:06:31.219Z,77.10
2023-02-19T22:08:58.853Z,77.44
2023-02-19T22:11:25.983Z,77.65
2023-02-19T22:13:53.469Z,77.43
2023-02-19T22:16:20.651Z,78.59
2023-02-19T22:18:52.592Z,78.66
2023-02-19T22:21:23.200Z,78.94
2023-02-19T22:23:52.302Z,77.91
2023-02-19T22:26:24.212Z,78.07
2023-02-19T22:28:51.774Z,77.93
2023-02-19T22:31:21.017Z,77.69
2023-02-19T22:33:48.385Z,78.25
2023-02-19T22:36:17.605Z,76.56
2023-02-19T22:38:48.024Z,75.74
2023-02-19T22:41:16.141Z,76.06
2023-02-19T22:43:43.457Z,76.30
2023-02-19T22:46:14.835Z,75.99
2023-02-19T22:48:42.015Z,75.79
2023-02-19T22:51:17.570Z,75.28
2023-02-19T22:53:53.024Z,75.66
2023-02-19T22:56:22.456Z,76.32
2023-02-19T22:58:49.703Z,76.09
2023-02-19T23:01:16.982Z,76.07
2023-02-19T23:03:55.015Z,76.17
2023-02-19T23:06:25.902Z,76.54
2023-02-19T23:08:54.194Z,76.23
2023-02-19T23:11:30.640Z,76.47
2023-02-19T23:13:58.780Z,75.35
2023-02-19T23:16:26.747Z,76.13
2023-02-19T23:18:56.716Z,76.24
2023-02-19T23:21:23.725Z,75.99
2023-02-19T23:23:50.752Z,75.61
2023-02-19T23:26:17.603Z,75.75
2023-02-19T23:28:45.519Z,75.55
2023-02-19T23:31:13.556Z,75.26
2023-02-19T23:33:43.742Z,75.52
2023-02-19T23:36:11.539Z,75.71
2023-02-19T23:38:38.580Z,75.89
2023-02-19T23:41:13.089Z,75.38
2023-02-19T23:43:40.261Z,76.26
2023-02-19T23:46:07.787Z,75.91
2023-02-19T23:48:34.771Z,76.85
2023-02-19T23:51:01.853Z,76.05
2023-02-19T23:53:29.846Z,76.11
2023-02-19T23:55:59.648Z,76.09
2023-02-19T23:58:26.551Z,76.53
